Olalla Valley, Washington
Current Conditions -  °F | °C
As of 2:55 PM on Thursday 20 Nov 2014 (Local Time) from KPWT Reporting Station
Overcast Overcast  
Wind Chill: 44°   Ceiling: 500
Heat Index: 48°   Visibility: 8mi
Dew Point: 48°   Wind: 10mph
Humidity: 100%   Direction: 180°S
Pressure: 29.96"   Gusts: NA
Location:  47.4285°N, 122.573°W
Report Text: KPWT 202255Z AUTO 18009KT 8SM OVC005 09/09 A2996 RMK AO1
Loading
Personal Weather Stations






























Interactive Weather Map New forecast layout! Learn more

10-Day Weather Forecast

Advertisements
Track Severe Weather on mobile